createdAt,value
2019-01-14T00:00:50.115Z,97790.72
2019-01-14T00:03:17.729Z,97800.96
2019-01-14T00:05:45.351Z,97803.91
2019-01-14T00:08:13.309Z,97811.16
2019-01-14T00:10:40.916Z,97822.22
2019-01-14T00:13:08.838Z,97814.12
2019-01-14T00:15:36.806Z,97821.67
2019-01-14T00:18:04.775Z,97821.30
2019-01-14T00:20:32.388Z,97796.84
2019-01-14T00:23:00.021Z,97809.40
2019-01-14T00:25:27.964Z,97822.67
2019-01-14T00:27:55.952Z,97807.28
2019-01-14T00:30:23.915Z,97821.84
2019-01-14T00:32:51.880Z,97813.73
2019-01-14T00:35:19.862Z,97809.50
2019-01-14T00:37:47.484Z,97814.22
2019-01-14T00:40:15.376Z,97818.05
2019-01-14T00:42:43.444Z,97824.52
2019-01-14T00:45:11.061Z,97821.11
2019-01-14T00:47:38.679Z,97819.80
2019-01-14T00:50:06.296Z,97808.27
2019-01-14T00:52:33.924Z,97817.70
2019-01-14T00:55:01.552Z,97834.84
2019-01-14T00:57:29.522Z,97829.64
2019-01-14T00:59:57.509Z,97846.89
2019-01-14T01:02:25.135Z,97861.06
2019-01-14T01:04:53.025Z,97872.81
2019-01-14T01:07:20.991Z,97882.83
2019-01-14T01:09:48.964Z,97880.97
2019-01-14T01:12:16.591Z,97896.34
2019-01-14T01:14:44.497Z,97889.39
2019-01-14T01:17:12.126Z,97866.72
2019-01-14T01:19:40.022Z,97889.56
2019-01-14T01:22:07.994Z,97896.58
2019-01-14T01:24:35.958Z,97900.45
2019-01-14T01:27:03.930Z,97925.17
2019-01-14T01:29:31.638Z,97938.43
2019-01-14T01:31:59.262Z,97936.25
2019-01-14T01:34:27.225Z,97927.55
2019-01-14T01:36:57.753Z,97929.61
2019-01-14T01:39:24.800Z,97940.11
2019-01-14T01:41:52.803Z,97948.66
2019-01-14T01:44:20.427Z,97939.73
2019-01-14T01:46:48.049Z,97955.09
2019-01-14T01:49:15.960Z,97960.22
2019-01-14T01:51:43.575Z,97973.83
2019-01-14T01:54:11.207Z,97963.16
2019-01-14T01:56:39.153Z,97961.95
2019-01-14T01:59:06.778Z,97984.11
2019-01-14T02:01:34.689Z,97988.47
2019-01-14T02:04:02.657Z,97989.34
2019-01-14T02:06:30.630Z,97998.34
2019-01-14T02:08:58.261Z,98007.38
2019-01-14T02:11:25.884Z,98013.30
2019-01-14T02:13:53.817Z,98026.45
2019-01-14T02:16:21.805Z,98039.04
2019-01-14T02:18:49.761Z,98039.38
2019-01-14T02:21:17.378Z,98044.88
2019-01-14T02:23:45.000Z,98051.31
2019-01-14T02:26:12.627Z,98044.54
2019-01-14T02:28:40.613Z,98052.75
2019-01-14T02:31:08.579Z,98062.20
2019-01-14T02:33:36.551Z,98075.80
2019-01-14T02:36:04.747Z,98082.70
2019-01-14T02:38:32.792Z,98092.12
2019-01-14T02:41:00.416Z,98102.74
2019-01-14T02:43:28.033Z,98099.73
2019-01-14T02:45:56.044Z,98109.11
2019-01-14T02:48:23.622Z,98110.76
2019-01-14T02:50:51.523Z,98109.39
2019-01-14T02:53:19.153Z,98123.49
2019-01-14T02:55:47.049Z,98122.62
2019-01-14T02:58:14.690Z,98120.39
2019-01-14T03:00:42.579Z,98131.91
2019-01-14T03:03:10.549Z,98141.63
2019-01-14T03:05:38.162Z,98154.88
2019-01-14T03:08:06.079Z,98150.99
2019-01-14T03:10:34.053Z,98149.21
2019-01-14T03:13:02.014Z,98158.22
2019-01-14T03:15:29.990Z,98171.30
2019-01-14T03:17:57.613Z,98187.08
2019-01-14T03:20:25.248Z,98177.29
2019-01-14T03:22:52.886Z,98176.33
2019-01-14T03:25:20.519Z,98178.89
2019-01-14T03:27:48.405Z,98192.14
2019-01-14T03:30:16.044Z,98192.46
2019-01-14T03:32:43.950Z,98211.11
2019-01-14T03:35:12.002Z,98203.48
2019-01-14T03:37:39.628Z,98192.78
2019-01-14T03:40:07.532Z,98213.22
2019-01-14T03:42:35.156Z,98226.00
2019-01-14T03:45:02.867Z,98211.92
2019-01-14T03:47:31.133Z,98226.78
2019-01-14T03:49:59.105Z,98241.36
2019-01-14T03:52:26.727Z,98240.86
2019-01-14T03:54:54.358Z,98242.95
2019-01-14T03:57:22.303Z,98268.55
2019-01-14T03:59:50.289Z,98239.07
2019-01-14T04:02:18.233Z,98265.08
2019-01-14T04:04:45.871Z,98264.20
2019-01-14T04:07:14.060Z,98281.20
2019-01-14T04:09:42.050Z,98285.04
2019-01-14T04:12:10.010Z,98298.19
2019-01-14T04:14:37.983Z,98295.52
2019-01-14T04:17:05.975Z,98296.33
2019-01-14T04:19:33.937Z,98309.17
2019-01-14T04:22:01.883Z,98301.80
2019-01-14T04:24:29.857Z,98327.09
2019-01-14T04:26:57.488Z,98309.84
2019-01-14T04:29:25.117Z,98331.59
2019-01-14T04:31:53.071Z,98343.11
2019-01-14T04:34:21.030Z,98354.09
2019-01-14T04:36:48.650Z,98367.76
2019-01-14T04:39:16.355Z,98373.67
2019-01-14T04:41:43.982Z,98378.73
2019-01-14T04:44:11.874Z,98373.91
2019-01-14T04:46:39.852Z,98388.05
2019-01-14T04:49:07.816Z,98393.84
2019-01-14T04:51:35.785Z,98401.47
2019-01-14T04:54:03.755Z,98410.02
2019-01-14T04:56:31.722Z,98416.82
2019-01-14T04:58:59.360Z,98421.06
2019-01-14T05:01:26.979Z,98420.52
2019-01-14T05:03:54.614Z,98420.11
2019-01-14T05:06:22.574Z,98441.45
2019-01-14T05:08:50.552Z,98434.46
2019-01-14T05:11:18.518Z,98441.34
2019-01-14T05:13:46.138Z,98448.88
2019-01-14T05:16:14.051Z,98454.74
2019-01-14T05:18:42.014Z,98445.72
2019-01-14T05:21:09.664Z,98455.59
2019-01-14T05:23:37.298Z,98466.64
2019-01-14T05:26:04.916Z,98457.91
2019-01-14T05:28:32.972Z,98462.20
2019-01-14T05:31:00.614Z,98478.35
2019-01-14T05:33:28.502Z,98487.12
2019-01-14T05:35:56.138Z,98487.58
2019-01-14T05:38:24.035Z,98485.84
2019-01-14T05:40:52.015Z,98501.10
2019-01-14T05:43:19.977Z,98510.33
2019-01-14T05:45:47.939Z,98511.72
2019-01-14T05:48:15.910Z,98525.58
2019-01-14T05:50:43.902Z,98534.17
2019-01-14T05:53:11.853Z,98548.77
2019-01-14T05:55:39.847Z,98546.94
2019-01-14T05:58:07.467Z,98548.86
2019-01-14T06:00:43.104Z,98550.22
2019-01-14T06:03:10.997Z,98561.23
2019-01-14T06:05:38.992Z,98568.52
2019-01-14T06:08:06.622Z,98584.91
2019-01-14T06:10:34.603Z,98609.89
2019-01-14T06:13:02.576Z,98594.38
2019-01-14T06:15:30.538Z,98614.26
2019-01-14T06:17:58.510Z,98621.61
2019-01-14T06:20:28.548Z,98617.16
2019-01-14T06:22:56.518Z,98624.47
2019-01-14T06:25:24.154Z,98638.52
2019-01-14T06:27:51.775Z,98633.26
2019-01-14T06:30:19.469Z,98638.42
2019-01-14T06:32:47.357Z,98632.95
2019-01-14T06:35:15.327Z,98626.07
2019-01-14T06:37:42.952Z,98620.59
2019-01-14T06:40:10.851Z,98618.03
2019-01-14T06:42:38.483Z,98630.40
2019-01-14T06:45:06.377Z,98633.11
2019-01-14T06:47:34.348Z,98640.73
2019-01-14T06:50:01.983Z,98643.38
2019-01-14T06:52:29.599Z,98659.11
2019-01-14T06:54:57.558Z,98646.28
2019-01-14T06:57:25.182Z,98653.34
2019-01-14T06:59:53.084Z,98651.20
2019-01-14T07:02:20.717Z,98659.91
2019-01-14T07:04:48.603Z,98650.42
2019-01-14T07:07:16.569Z,98654.50
2019-01-14T07:09:44.195Z,98648.24
2019-01-14T07:12:12.100Z,98660.63
2019-01-14T07:14:40.893Z,98650.98
2019-01-14T07:17:08.527Z,98652.32
2019-01-14T07:19:36.420Z,98655.05
2019-01-14T07:22:04.410Z,98658.58
2019-01-14T07:24:32.357Z,98666.36
2019-01-14T07:27:00.337Z,98665.34
2019-01-14T07:29:28.297Z,98672.59
2019-01-14T07:31:56.264Z,98666.86
2019-01-14T07:34:23.886Z,98672.19
2019-01-14T07:36:51.795Z,98676.83
2019-01-14T07:39:19.418Z,98673.80
2019-01-14T07:41:47.049Z,98685.20
2019-01-14T07:44:14.987Z,98689.24
2019-01-14T07:46:42.623Z,98685.31
2019-01-14T07:49:10.240Z,98684.64
2019-01-14T07:51:38.281Z,98689.11
2019-01-14T07:54:06.252Z,98680.20
2019-01-14T07:56:34.321Z,98693.95
2019-01-14T07:59:02.295Z,98669.25
2019-01-14T08:01:30.262Z,98683.86
2019-01-14T08:03:58.229Z,98680.19
2019-01-14T08:06:25.861Z,98697.19
2019-01-14T08:08:55.847Z,98692.70
2019-01-14T08:11:23.777Z,98703.07
2019-01-14T08:13:51.406Z,98715.41
2019-01-14T08:16:19.312Z,98727.75
2019-01-14T08:18:47.279Z,98735.02
2019-01-14T08:21:15.250Z,98741.43
2019-01-14T08:23:42.866Z,98749.81
2019-01-14T08:26:10.780Z,98759.45
2019-01-14T08:28:38.404Z,98770.38
2019-01-14T08:31:06.315Z,98760.09
2019-01-14T08:33:34.278Z,98774.39
2019-01-14T08:36:01.903Z,98781.31
2019-01-14T08:38:29.825Z,98791.24
2019-01-14T08:40:58.698Z,98798.27
2019-01-14T08:43:28.220Z,98811.91
2019-01-14T08:45:57.048Z,98821.36
2019-01-14T08:48:24.675Z,98837.73
2019-01-14T08:50:52.634Z,98829.91
2019-01-14T08:53:20.247Z,98834.92
2019-01-14T08:55:47.878Z,98844.98
2019-01-14T08:58:15.820Z,98848.91
2019-01-14T09:00:43.466Z,98847.02
2019-01-14T09:03:11.092Z,98852.42
2019-01-14T09:05:38.710Z,98865.78
2019-01-14T09:08:06.340Z,98850.34
2019-01-14T09:10:34.233Z,98861.28
2019-01-14T09:13:01.856Z,98877.02
2019-01-14T09:15:29.817Z,98861.84
2019-01-14T09:18:02.608Z,98877.41
2019-01-14T09:20:27.338Z,98870.59
2019-01-14T09:22:54.971Z,98863.13
2019-01-14T09:25:22.592Z,98872.02
2019-01-14T09:27:50.296Z,98867.48
2019-01-14T09:30:17.925Z,98868.61
2019-01-14T09:32:45.555Z,98876.41
2019-01-14T09:35:13.519Z,98877.25
2019-01-14T09:37:41.489Z,98870.09
2019-01-14T09:40:09.557Z,98865.91
2019-01-14T09:42:37.193Z,98872.23
2019-01-14T09:45:05.053Z,98872.43
2019-01-14T09:47:32.958Z,98888.78
2019-01-14T09:50:00.941Z,98868.16
2019-01-14T09:52:28.912Z,98867.13
2019-01-14T09:54:56.529Z,98864.19
2019-01-14T09:57:24.175Z,98870.18
2019-01-14T09:59:52.089Z,98897.86
2019-01-14T10:02:20.061Z,98868.40
2019-01-14T10:04:47.683Z,98880.56
2019-01-14T10:07:15.312Z,98887.92
2019-01-14T10:09:43.249Z,98895.29
2019-01-14T10:12:11.221Z,98883.92
2019-01-14T10:14:39.188Z,98886.52
2019-01-14T10:17:07.167Z,98887.47
2019-01-14T10:19:34.782Z,98889.43
2019-01-14T10:22:02.435Z,98892.95
2019-01-14T10:24:30.049Z,98891.59
2019-01-14T10:26:58.017Z,98873.98
2019-01-14T10:29:25.630Z,98870.00
2019-01-14T10:31:53.541Z,98861.05
2019-01-14T10:34:21.515Z,98878.48
2019-01-14T10:36:49.147Z,98887.87
2019-01-14T10:39:17.106Z,98870.58
2019-01-14T10:41:44.925Z,98872.56
2019-01-14T10:44:12.492Z,98864.20
2019-01-14T10:46:40.463Z,98864.66
2019-01-14T10:49:08.405Z,98877.34
2019-01-14T10:51:36.378Z,98866.11
2019-01-14T10:54:04.344Z,98882.58
2019-01-14T10:56:32.315Z,98880.81
2019-01-14T10:58:59.948Z,98875.08
2019-01-14T11:01:27.858Z,98868.77
2019-01-14T11:03:55.815Z,98859.66
2019-01-14T11:06:23.438Z,98870.11
2019-01-14T11:08:57.364Z,98862.03
2019-01-14T11:11:20.745Z,98853.34
2019-01-14T11:13:48.725Z,98857.33
2019-01-14T11:16:16.705Z,98847.75
2019-01-14T11:18:46.397Z,98863.91
2019-01-14T11:21:14.508Z,98870.86
2019-01-14T11:23:42.219Z,98874.11
2019-01-14T11:26:10.103Z,98878.03
2019-01-14T11:28:37.723Z,98874.45
2019-01-14T11:31:06.857Z,98874.60
2019-01-14T11:33:34.846Z,98867.88
2019-01-14T11:36:02.462Z,98867.83
2019-01-14T11:38:30.361Z,98883.62
2019-01-14T11:40:58.330Z,98879.87
2019-01-14T11:43:25.968Z,98877.79
2019-01-14T11:45:53.861Z,98882.34
2019-01-14T11:48:21.830Z,98885.29
2019-01-14T11:50:49.807Z,98874.66
2019-01-14T11:53:17.767Z,98882.51
2019-01-14T11:55:45.738Z,98885.91
2019-01-14T11:58:13.366Z,98878.48
2019-01-14T12:00:41.264Z,98892.38
2019-01-14T12:03:09.237Z,98876.06
2019-01-14T12:05:36.854Z,98882.06
2019-01-14T12:08:04.766Z,98884.28
2019-01-14T12:10:32.391Z,98878.70
2019-01-14T12:13:00.300Z,98877.66
2019-01-14T12:15:28.267Z,98875.00
2019-01-14T12:17:56.238Z,98871.44
2019-01-14T12:20:24.222Z,98889.39
2019-01-14T12:22:52.174Z,98880.19
2019-01-14T12:25:20.011Z,98888.73
2019-01-14T12:27:48.120Z,98879.96
2019-01-14T12:30:15.742Z,98896.89
2019-01-14T12:32:43.646Z,98934.80
2019-01-14T12:35:11.508Z,98938.94
2019-01-14T12:37:39.482Z,98952.68
2019-01-14T12:40:07.450Z,98963.20
2019-01-14T12:42:35.417Z,98972.61
2019-01-14T12:45:03.028Z,98961.14
2019-01-14T12:47:30.670Z,98958.32
2019-01-14T12:49:58.609Z,98955.77
2019-01-14T12:52:26.231Z,98946.69
2019-01-14T12:54:53.852Z,98953.45
2019-01-14T12:57:21.804Z,98961.02
2019-01-14T12:59:49.431Z,98964.84
2019-01-14T13:02:17.333Z,98956.65
2019-01-14T13:04:44.963Z,98960.15
2019-01-14T13:07:12.870Z,98968.31
2019-01-14T13:09:40.516Z,98978.10
2019-01-14T13:12:08.129Z,98986.54
2019-01-14T13:14:36.053Z,98991.12
2019-01-14T13:17:04.027Z,99005.75
2019-01-14T13:19:32.015Z,98992.98
2019-01-14T13:21:59.984Z,99010.48
2019-01-14T13:24:27.934Z,98986.51
2019-01-14T13:26:55.901Z,98994.55
2019-01-14T13:29:23.525Z,98988.69
2019-01-14T13:31:51.157Z,98999.88
2019-01-14T13:34:18.780Z,99047.14
2019-01-14T13:36:46.766Z,99037.28
2019-01-14T13:39:14.727Z,99022.62
2019-01-14T13:41:42.698Z,99023.72
2019-01-14T13:44:10.317Z,99018.16
2019-01-14T13:46:38.229Z,99018.63
2019-01-14T13:49:06.194Z,99006.02
2019-01-14T13:51:34.170Z,99008.98
2019-01-14T13:54:02.133Z,99005.23
2019-01-14T13:56:30.001Z,99033.64
2019-01-14T13:58:57.976Z,99021.93
2019-01-14T14:01:25.959Z,99041.48
2019-01-14T14:03:53.909Z,99047.34
2019-01-14T14:06:21.879Z,99056.52
2019-01-14T14:08:49.851Z,99043.97
2019-01-14T14:11:17.818Z,99071.37
2019-01-14T14:13:45.514Z,99087.66
2019-01-14T14:16:13.128Z,99087.89
2019-01-14T14:18:41.008Z,99110.59
2019-01-14T14:21:08.636Z,99136.05
2019-01-14T14:23:36.254Z,99129.25
2019-01-14T14:26:04.204Z,99138.30
2019-01-14T14:28:32.175Z,99122.75
2019-01-14T14:31:00.047Z,99151.83
2019-01-14T14:33:27.669Z,99125.20
2019-01-14T14:35:55.571Z,99109.89
2019-01-14T14:38:23.192Z,99098.44
2019-01-14T14:40:50.814Z,99096.09
2019-01-14T14:43:18.435Z,99095.42
2019-01-14T14:45:46.328Z,99117.13
2019-01-14T14:48:14.290Z,99125.73
2019-01-14T14:50:42.268Z,99131.61
2019-01-14T14:53:10.027Z,99133.17
2019-01-14T14:55:37.647Z,99134.05
2019-01-14T14:58:05.259Z,99121.64
2019-01-14T15:00:33.220Z,99120.38
2019-01-14T15:03:01.204Z,99127.64
2019-01-14T15:05:29.157Z,99116.99
2019-01-14T15:07:56.854Z,99118.16
2019-01-14T15:10:24.492Z,99119.05
2019-01-14T15:12:52.449Z,99120.02
2019-01-14T15:15:22.469Z,99122.33
2019-01-14T15:17:50.336Z,99124.39
2019-01-14T15:20:18.307Z,99129.92
2019-01-14T15:22:45.927Z,99136.91
2019-01-14T15:25:13.834Z,99117.94
2019-01-14T15:27:41.804Z,99131.64
2019-01-14T15:30:09.775Z,99142.44
2019-01-14T15:32:37.642Z,99149.03
2019-01-14T15:35:05.613Z,99169.72
2019-01-14T15:37:33.229Z,99167.12
2019-01-14T15:40:04.409Z,99181.96
2019-01-14T15:42:30.547Z,99189.77
2019-01-14T15:44:58.177Z,99193.45
2019-01-14T15:47:26.073Z,99198.23
2019-01-14T15:49:53.691Z,99210.66
2019-01-14T15:52:21.301Z,99211.50
2019-01-14T15:54:48.918Z,99226.39
2019-01-14T15:57:16.534Z,99236.97
2019-01-14T15:59:44.493Z,99245.70
2019-01-14T16:02:12.104Z,99255.44
2019-01-14T16:04:40.020Z,99273.70
2019-01-14T16:07:07.634Z,99266.71
2019-01-14T16:09:35.568Z,99281.19
2019-01-14T16:12:03.516Z,99286.53
2019-01-14T16:14:31.488Z,99299.41
2019-01-14T16:16:59.352Z,99307.67
2019-01-14T16:19:27.326Z,99311.58
2019-01-14T16:21:54.936Z,99324.14
2019-01-14T16:24:22.853Z,99315.69
2019-01-14T16:26:50.466Z,99326.83
2019-01-14T16:29:18.086Z,99335.11
2019-01-14T16:31:46.046Z,99338.58
2019-01-14T16:34:13.671Z,99348.75
2019-01-14T16:36:41.308Z,99351.16
2019-01-14T16:39:08.924Z,99357.34
2019-01-14T16:41:36.543Z,99359.37
2019-01-14T16:44:04.466Z,99369.84
2019-01-14T16:46:32.092Z,99372.29
2019-01-14T16:48:59.991Z,99385.11
2019-01-14T16:51:27.960Z,99390.63
2019-01-14T16:53:55.930Z,99389.75
2019-01-14T16:56:23.898Z,99391.48
2019-01-14T16:58:51.519Z,99398.63
2019-01-14T17:01:19.434Z,99404.28
2019-01-14T17:03:47.401Z,99412.25
2019-01-14T17:06:15.365Z,99422.42
2019-01-14T17:08:43.336Z,99423.54
2019-01-14T17:11:11.308Z,99434.83
2019-01-14T17:13:38.922Z,99440.47
2019-01-14T17:16:06.836Z,99445.14
2019-01-14T17:18:34.700Z,99448.73
2019-01-14T17:21:02.323Z,99457.87
2019-01-14T17:23:30.232Z,99455.13
2019-01-14T17:25:57.859Z,99465.28
2019-01-14T17:28:25.784Z,99471.83
2019-01-14T17:30:53.733Z,99478.35
2019-01-14T17:33:21.605Z,99477.34
2019-01-14T17:35:49.221Z,99486.70
2019-01-14T17:38:17.132Z,99494.11
2019-01-14T17:40:45.098Z,99495.60
2019-01-14T17:43:12.714Z,99500.56
2019-01-14T17:45:40.335Z,99501.12
2019-01-14T17:48:07.950Z,99499.61
2019-01-14T17:50:36.071Z,99504.70
2019-01-14T17:53:03.920Z,99511.39
2019-01-14T17:55:31.894Z,99515.66
2019-01-14T17:57:59.514Z,99520.30
2019-01-14T18:00:27.423Z,99522.92
2019-01-14T18:02:55.043Z,99522.53
2019-01-14T18:05:22.667Z,99530.92
2019-01-14T18:07:50.284Z,99529.89
2019-01-14T18:10:18.946Z,99525.47
2019-01-14T18:12:46.864Z,99534.37
2019-01-14T18:15:14.492Z,99538.55
2019-01-14T18:17:42.105Z,99542.20
2019-01-14T18:20:09.737Z,99542.14
2019-01-14T18:22:37.716Z,99549.63
2019-01-14T18:25:05.333Z,99558.75
2019-01-14T18:27:32.958Z,99559.52
2019-01-14T18:30:00.905Z,99569.14
2019-01-14T18:32:28.557Z,99566.11
2019-01-14T18:34:56.178Z,99574.50
2019-01-14T18:37:24.119Z,99576.38
2019-01-14T18:39:51.802Z,99587.28
2019-01-14T18:42:19.432Z,99587.11
2019-01-14T18:44:47.051Z,99589.33
2019-01-14T18:47:14.954Z,99597.33
2019-01-14T18:49:42.922Z,99606.63
2019-01-14T18:52:10.909Z,99612.37
2019-01-14T18:54:38.863Z,99625.97
2019-01-14T18:57:06.830Z,99619.29
2019-01-14T18:59:34.799Z,99615.03
2019-01-14T19:02:02.772Z,99625.26
2019-01-14T19:04:30.741Z,99632.00
2019-01-14T19:06:58.613Z,99620.72
2019-01-14T19:09:26.229Z,99629.73
2019-01-14T19:11:53.918Z,99636.24
2019-01-14T19:14:21.805Z,99647.02
2019-01-14T19:16:49.772Z,99643.45
2019-01-14T19:19:17.742Z,99645.26
2019-01-14T19:21:45.708Z,99657.73
2019-01-14T19:24:13.679Z,99663.31
2019-01-14T19:26:41.666Z,99658.41
2019-01-14T19:29:09.613Z,99670.41
2019-01-14T19:31:37.593Z,99674.12
2019-01-14T19:34:05.557Z,99682.80
2019-01-14T19:36:33.524Z,99684.73
2019-01-14T19:39:01.141Z,99687.70
2019-01-14T19:41:29.052Z,99689.44
2019-01-14T19:43:56.666Z,99695.34
2019-01-14T19:46:24.585Z,99698.34
2019-01-14T19:48:52.453Z,99701.34
2019-01-14T19:51:20.424Z,99703.03
2019-01-14T19:53:48.290Z,99703.25
2019-01-14T19:56:16.262Z,99713.06
2019-01-14T19:58:44.125Z,99722.32
2019-01-14T20:01:12.113Z,99715.68
2019-01-14T20:03:39.734Z,99728.26
2019-01-14T20:06:07.649Z,99731.01
2019-01-14T20:08:35.594Z,99722.78
2019-01-14T20:11:09.149Z,99729.98
2019-01-14T20:13:33.292Z,99725.32
2019-01-14T20:16:00.901Z,99740.38
2019-01-14T20:18:28.807Z,99732.88
2019-01-14T20:20:56.881Z,99733.06
2019-01-14T20:23:24.844Z,99747.68
2019-01-14T20:25:52.466Z,99741.25
2019-01-14T20:28:20.099Z,99746.52
2019-01-14T20:30:48.043Z,99744.92
2019-01-14T20:33:15.664Z,99749.23
2019-01-14T20:35:43.354Z,99766.38
2019-01-14T20:38:11.232Z,99765.28
2019-01-14T20:40:38.844Z,99754.70
2019-01-14T20:43:06.778Z,99765.09
2019-01-14T20:45:34.396Z,99757.64
2019-01-14T20:48:02.294Z,99764.67
2019-01-14T20:50:30.160Z,99778.17
2019-01-14T20:52:58.136Z,99769.05
2019-01-14T20:55:26.097Z,99777.67
2019-01-14T20:57:54.066Z,99789.59
2019-01-14T21:00:23.367Z,99791.17
2019-01-14T21:02:50.992Z,99800.47
2019-01-14T21:05:19.416Z,99792.34
2019-01-14T21:07:47.378Z,99796.33
2019-01-14T21:10:15.350Z,99801.14
2019-01-14T21:12:43.316Z,99803.97
2019-01-14T21:15:11.285Z,99796.94
2019-01-14T21:17:39.255Z,99808.14
2019-01-14T21:20:07.226Z,99799.66
2019-01-14T21:22:35.197Z,99808.38
2019-01-14T21:25:03.083Z,99805.95
2019-01-14T21:27:30.705Z,99806.52
2019-01-14T21:29:58.315Z,99805.59
2019-01-14T21:32:25.949Z,99807.19
2019-01-14T21:34:53.556Z,99798.77
2019-01-14T21:37:21.476Z,99804.98
2019-01-14T21:39:49.092Z,99796.40
2019-01-14T21:42:17.028Z,99801.98
2019-01-14T21:44:44.980Z,99801.66
2019-01-14T21:47:12.613Z,99802.94
2019-01-14T21:49:40.505Z,99796.29
2019-01-14T21:52:08.477Z,99800.00
2019-01-14T21:54:36.447Z,99798.45
2019-01-14T21:57:04.415Z,99802.44
2019-01-14T21:59:32.390Z,99795.69
2019-01-14T22:02:00.334Z,99805.66
2019-01-14T22:04:28.238Z,99808.88
2019-01-14T22:06:55.870Z,99808.31
2019-01-14T22:09:23.472Z,99806.08
2019-01-14T22:11:51.418Z,99805.98
2019-01-14T22:14:19.381Z,99799.40
2019-01-14T22:16:47.376Z,99805.76
2019-01-14T22:19:15.003Z,99798.62
2019-01-14T22:21:42.881Z,99799.12
2019-01-14T22:24:10.857Z,99803.92
2019-01-14T22:26:38.467Z,99811.45
2019-01-14T22:29:06.091Z,99801.66
2019-01-14T22:31:33.717Z,99805.66
2019-01-14T22:34:01.620Z,99808.59
2019-01-14T22:36:29.578Z,99799.50
2019-01-14T22:38:57.562Z,99798.69
2019-01-14T22:41:25.529Z,99803.77
2019-01-14T22:43:53.486Z,99807.59
2019-01-14T22:46:21.096Z,99811.91
2019-01-14T22:48:49.029Z,99810.02
2019-01-14T22:51:16.639Z,99802.28
2019-01-14T22:53:44.542Z,99809.03
2019-01-14T22:56:12.511Z,99809.53
2019-01-14T22:58:40.481Z,99806.48
2019-01-14T23:01:15.720Z,99791.31
2019-01-14T23:03:43.347Z,99810.80
2019-01-14T23:06:11.250Z,99804.50
2019-01-14T23:08:38.876Z,99812.64
2019-01-14T23:11:06.782Z,99815.50
2019-01-14T23:13:34.749Z,99807.33
2019-01-14T23:16:02.727Z,99808.53
2019-01-14T23:18:30.706Z,99810.87
2019-01-14T23:20:58.656Z,99815.56
2019-01-14T23:23:26.289Z,99814.51
2019-01-14T23:25:53.991Z,99811.08
2019-01-14T23:28:21.957Z,99809.48
2019-01-14T23:30:49.932Z,99810.81
2019-01-14T23:33:17.553Z,99805.23
2019-01-14T23:35:45.165Z,99801.73
2019-01-14T23:38:13.113Z,99799.06
2019-01-14T23:40:40.730Z,99806.38
2019-01-14T23:43:08.662Z,99807.20
2019-01-14T23:45:36.612Z,99809.20
2019-01-14T23:48:04.236Z,99793.36
2019-01-14T23:50:31.854Z,99791.70
2019-01-14T23:52:59.474Z,99794.41
2019-01-14T23:55:27.370Z,99787.11
2019-01-14T23:57:54.998Z,99772.55
